createdAt,value
2022-10-24T00:00:23.838Z,100004.16
2022-10-24T00:02:55.322Z,99993.75
2022-10-24T00:05:26.869Z,100005.88
2022-10-24T00:07:58.137Z,100012.16
2022-10-24T00:10:29.473Z,100015.84
2022-10-24T00:13:00.750Z,100011.38
2022-10-24T00:15:32.233Z,100000.97
2022-10-24T00:18:04.266Z,99997.94
2022-10-24T00:20:37.078Z,100005.88
2022-10-24T00:23:09.506Z,99998.66
2022-10-24T00:25:40.850Z,100007.47
2022-10-24T00:28:12.148Z,99996.13
2022-10-24T00:30:43.388Z,99997.06
2022-10-24T00:33:14.790Z,99989.00
2022-10-24T00:35:46.546Z,99996.94
2022-10-24T00:38:17.991Z,99999.75
2022-10-24T00:40:49.400Z,99983.19
2022-10-24T00:43:23.806Z,99991.16
2022-10-24T00:45:57.777Z,99984.34
2022-10-24T00:48:37.746Z,99976.44
2022-10-24T00:51:28.213Z,99967.84
2022-10-24T00:54:05.549Z,99974.25
2022-10-24T00:56:45.344Z,99969.16
2022-10-24T00:59:17.972Z,99975.56
2022-10-24T01:01:49.313Z,99998.00
2022-10-24T01:04:20.616Z,99984.00
2022-10-24T01:07:07.624Z,99972.84
2022-10-24T01:10:02.904Z,99972.72
2022-10-24T01:12:52.917Z,99974.72
2022-10-24T01:15:51.161Z,99960.72
2022-10-24T01:18:32.581Z,99965.13
2022-10-24T01:21:25.407Z,99967.00
2022-10-24T01:24:08.672Z,99955.53
2022-10-24T01:27:12.288Z,99956.53
2022-10-24T01:29:52.437Z,99953.25
2022-10-24T01:32:42.179Z,99925.50
2022-10-24T01:35:55.270Z,99959.78
2022-10-24T01:38:32.257Z,99959.13
2022-10-24T01:41:08.104Z,99953.03
2022-10-24T01:43:49.649Z,99955.78
2022-10-24T01:46:24.991Z,99940.16
2022-10-24T01:49:05.477Z,99939.38
2022-10-24T01:51:38.448Z,99950.16
2022-10-24T01:54:11.947Z,99940.44
2022-10-24T01:56:43.232Z,99943.47
2022-10-24T01:59:29.469Z,99957.63
2022-10-24T02:02:06.191Z,99948.81
2022-10-24T02:04:44.719Z,99943.91
2022-10-24T02:07:19.538Z,99941.25
2022-10-24T02:09:56.678Z,99936.84
2022-10-24T02:12:29.378Z,99939.63
2022-10-24T02:15:06.774Z,99928.34
2022-10-24T02:17:38.298Z,99923.34
2022-10-24T02:20:11.479Z,99932.13
2022-10-24T02:22:50.774Z,99919.88
2022-10-24T02:25:27.232Z,99922.59
2022-10-24T02:28:15.144Z,99908.47
2022-10-24T02:30:52.322Z,99913.06
2022-10-24T02:33:26.255Z,99883.53
2022-10-24T02:35:58.978Z,99910.50
2022-10-24T02:38:34.140Z,99898.16
2022-10-24T02:41:11.222Z,99905.22
2022-10-24T02:43:44.301Z,99903.50
2022-10-24T02:46:18.347Z,99896.56
2022-10-24T02:48:56.038Z,99900.88
2022-10-24T02:51:31.807Z,99904.59
2022-10-24T02:54:05.140Z,99904.59
2022-10-24T02:56:43.182Z,99889.63
2022-10-24T02:59:14.505Z,99868.69
2022-10-24T03:01:45.903Z,99886.09
2022-10-24T03:04:17.731Z,99874.88
2022-10-24T03:06:48.998Z,99873.75
2022-10-24T03:09:20.367Z,99885.28
2022-10-24T03:11:51.643Z,99895.00
2022-10-24T03:14:22.927Z,99890.59
2022-10-24T03:16:54.253Z,99876.63
2022-10-24T03:19:25.539Z,99890.59
2022-10-24T03:21:56.847Z,99888.81
2022-10-24T03:24:43.342Z,99890.66
2022-10-24T03:27:15.943Z,99895.94
2022-10-24T03:29:47.209Z,99881.81
2022-10-24T03:32:18.508Z,99886.16
2022-10-24T03:34:49.886Z,99898.34
2022-10-24T03:37:21.170Z,99878.84
2022-10-24T03:39:52.530Z,99879.72
2022-10-24T03:42:23.804Z,99869.06
2022-10-24T03:44:55.113Z,99868.13
2022-10-24T03:47:26.574Z,99869.84
2022-10-24T03:49:57.959Z,99858.47
2022-10-24T03:52:29.261Z,99852.94
2022-10-24T03:55:00.600Z,99848.59
2022-10-24T03:57:31.846Z,99842.53
2022-10-24T04:00:05.490Z,99840.69
2022-10-24T04:02:38.040Z,99842.66
2022-10-24T04:05:12.333Z,99854.06
2022-10-24T04:07:43.954Z,99840.13
2022-10-24T04:10:15.425Z,99854.94
2022-10-24T04:12:46.910Z,99842.78
2022-10-24T04:15:18.343Z,99859.44
2022-10-24T04:17:49.736Z,99844.66
2022-10-24T04:20:22.918Z,99845.47
2022-10-24T04:22:54.236Z,99837.78
2022-10-24T04:25:25.557Z,99846.44
2022-10-24T04:27:56.831Z,99835.19
2022-10-24T04:30:29.441Z,99856.28
2022-10-24T04:33:00.766Z,99851.97
2022-10-24T04:35:32.166Z,99861.44
2022-10-24T04:38:03.453Z,99857.16
2022-10-24T04:40:34.793Z,99861.44
2022-10-24T04:43:06.157Z,99856.41
2022-10-24T04:45:37.417Z,99860.56
2022-10-24T04:48:08.793Z,99847.25
2022-10-24T04:50:41.892Z,99856.03
2022-10-24T04:53:13.650Z,99851.78
2022-10-24T04:55:44.989Z,99841.31
2022-10-24T04:58:16.295Z,99850.03
2022-10-24T05:00:49.727Z,99848.31
2022-10-24T05:03:23.187Z,99853.69
2022-10-24T05:05:54.513Z,99839.78
2022-10-24T05:08:25.828Z,99860.88
2022-10-24T05:10:57.140Z,99853.94
2022-10-24T05:13:31.725Z,99848.75
2022-10-24T05:16:06.373Z,99853.03
2022-10-24T05:18:37.638Z,99851.34
2022-10-24T05:21:08.909Z,99849.63
2022-10-24T05:23:40.209Z,99855.81
2022-10-24T05:26:11.532Z,99853.22
2022-10-24T05:28:42.875Z,99847.13
2022-10-24T05:31:14.167Z,99855.25
2022-10-24T05:33:45.525Z,99850.84
2022-10-24T05:36:16.866Z,99854.31
2022-10-24T05:38:48.130Z,99855.19
2022-10-24T05:41:19.429Z,99857.97
2022-10-24T05:43:50.749Z,99847.44
2022-10-24T05:46:22.027Z,99842.31
2022-10-24T05:48:53.418Z,99849.25
2022-10-24T05:51:24.734Z,99849.19
2022-10-24T05:53:56.170Z,99843.06
2022-10-24T05:56:27.459Z,99854.31
2022-10-24T05:58:59.011Z,99848.06
2022-10-24T06:01:31.368Z,99844.53
2022-10-24T06:04:02.922Z,99849.00
2022-10-24T06:06:44.692Z,99843.66
2022-10-24T06:09:15.974Z,99840.19
2022-10-24T06:11:47.346Z,99847.25
2022-10-24T06:14:18.647Z,99844.59
2022-10-24T06:16:49.926Z,99840.81
2022-10-24T06:19:21.974Z,99832.16
2022-10-24T06:21:53.237Z,99841.69
2022-10-24T06:24:24.518Z,99838.09
2022-10-24T06:26:56.208Z,99832.09
2022-10-24T06:29:27.499Z,99831.97
2022-10-24T06:31:59.221Z,99841.63
2022-10-24T06:34:30.568Z,99840.75
2022-10-24T06:37:02.326Z,99843.41
2022-10-24T06:39:33.598Z,99840.69
2022-10-24T06:42:04.958Z,99847.75
2022-10-24T06:44:41.737Z,99839.94
2022-10-24T06:47:13.117Z,99853.81
2022-10-24T06:49:44.369Z,99848.63
2022-10-24T06:52:15.664Z,99856.41
2022-10-24T06:54:47.067Z,99864.34
2022-10-24T06:57:18.422Z,99864.28
2022-10-24T06:59:49.706Z,99872.22
2022-10-24T07:02:21.186Z,99858.22
2022-10-24T07:04:52.666Z,99873.88
2022-10-24T07:07:24.113Z,99877.41
2022-10-24T07:09:57.534Z,99874.69
2022-10-24T07:12:28.797Z,99880.75
2022-10-24T07:15:00.054Z,99878.84
2022-10-24T07:17:31.531Z,99877.84
2022-10-24T07:20:02.950Z,99877.84
2022-10-24T07:22:34.385Z,99888.97
2022-10-24T07:25:06.840Z,99886.22
2022-10-24T07:27:38.827Z,99874.72
2022-10-24T07:30:16.374Z,99886.72
2022-10-24T07:32:48.656Z,99911.91
2022-10-24T07:35:19.952Z,99906.41
2022-10-24T07:37:51.978Z,99911.31
2022-10-24T07:40:23.485Z,99920.72
2022-10-24T07:42:54.893Z,99908.84
2022-10-24T07:45:27.848Z,99903.25
2022-10-24T07:47:59.924Z,99909.03
2022-10-24T07:50:31.285Z,99914.84
2022-10-24T07:53:02.627Z,99916.09
2022-10-24T07:55:33.888Z,99911.94
2022-10-24T07:58:05.473Z,99907.84
2022-10-24T08:00:39.092Z,99918.28
2022-10-24T08:03:13.891Z,99901.69
2022-10-24T08:05:45.424Z,99910.75
2022-10-24T08:08:37.019Z,99913.69
2022-10-24T08:11:10.222Z,99905.09
2022-10-24T08:13:41.883Z,99901.25
2022-10-24T08:16:16.290Z,99909.41
2022-10-24T08:18:49.021Z,99906.34
2022-10-24T08:21:22.325Z,99901.41
2022-10-24T08:23:55.050Z,99895.75
2022-10-24T08:26:26.742Z,99904.97
2022-10-24T08:28:58.308Z,99907.28
2022-10-24T08:31:29.611Z,99903.16
2022-10-24T08:34:00.961Z,99900.72
2022-10-24T08:36:35.531Z,99892.44
2022-10-24T08:39:06.792Z,99904.50
2022-10-24T08:41:41.240Z,99899.47
2022-10-24T08:44:33.097Z,99905.44
2022-10-24T08:47:15.152Z,99900.50
2022-10-24T08:50:05.729Z,99906.41
2022-10-24T08:52:43.158Z,99897.84
2022-10-24T08:55:30.877Z,99905.88
2022-10-24T08:58:16.494Z,99903.59
2022-10-24T09:00:50.650Z,99892.53
2022-10-24T09:03:55.028Z,99899.44
2022-10-24T09:06:27.093Z,99885.44
2022-10-24T09:09:02.186Z,99897.53
2022-10-24T09:11:59.347Z,99897.00
2022-10-24T09:14:33.909Z,99887.44
2022-10-24T09:17:22.193Z,99885.88
2022-10-24T09:19:56.627Z,99880.41
2022-10-24T09:22:32.113Z,99882.34
2022-10-24T09:25:06.743Z,99891.09
2022-10-24T09:27:40.916Z,99877.38
2022-10-24T09:30:18.400Z,99882.19
2022-10-24T09:32:49.791Z,99893.13
2022-10-24T09:35:28.049Z,99889.38
2022-10-24T09:38:38.380Z,99894.28
2022-10-24T09:41:15.645Z,99892.94
2022-10-24T09:43:53.284Z,99893.88
2022-10-24T09:46:35.989Z,99893.78
2022-10-24T09:49:22.472Z,99895.13
2022-10-24T09:52:05.996Z,99884.59
2022-10-24T09:54:37.348Z,99897.94
2022-10-24T09:57:16.744Z,99889.69
2022-10-24T09:59:57.642Z,99893.03
2022-10-24T10:02:37.578Z,99886.41
2022-10-24T10:05:08.843Z,99894.00
2022-10-24T10:07:43.303Z,99877.78
2022-10-24T10:10:31.827Z,99882.59
2022-10-24T10:13:12.539Z,99869.72
2022-10-24T10:15:43.780Z,99879.28
2022-10-24T10:18:37.904Z,99881.56
2022-10-24T10:21:23.122Z,99883.09
2022-10-24T10:23:56.497Z,99886.25
2022-10-24T10:26:40.855Z,99892.00
2022-10-24T10:29:18.177Z,99883.22
2022-10-24T10:31:57.857Z,99875.63
2022-10-24T10:34:47.048Z,99892.56
2022-10-24T10:37:31.042Z,99894.53
2022-10-24T10:40:19.467Z,99880.38
2022-10-24T10:42:56.653Z,99880.84
2022-10-24T10:45:42.907Z,99893.03
2022-10-24T10:48:20.286Z,99883.34
2022-10-24T10:51:25.516Z,99877.09
2022-10-24T10:54:12.234Z,99890.34
2022-10-24T10:56:52.021Z,99896.03
2022-10-24T10:59:38.121Z,99893.91
2022-10-24T11:02:27.822Z,99895.50
2022-10-24T11:05:17.980Z,99895.19
2022-10-24T11:08:06.482Z,99900.88
2022-10-24T11:10:51.847Z,99898.09
2022-10-24T11:13:40.690Z,99893.91
2022-10-24T11:16:18.911Z,99912.66
2022-10-24T11:18:52.791Z,99903.41
2022-10-24T11:21:25.972Z,99900.50
2022-10-24T11:24:09.807Z,99907.50
2022-10-24T11:26:53.010Z,99910.31
2022-10-24T11:29:34.673Z,99892.41
2022-10-24T11:32:26.787Z,99899.84
2022-10-24T11:35:16.497Z,99898.56
2022-10-24T11:37:50.966Z,99891.31
2022-10-24T11:40:23.709Z,99905.13
2022-10-24T11:43:15.335Z,99901.13
2022-10-24T11:46:17.379Z,99909.72
2022-10-24T11:48:57.667Z,99895.84
2022-10-24T11:51:43.323Z,99889.59
2022-10-24T11:54:21.824Z,99906.84
2022-10-24T11:57:05.940Z,99907.38
2022-10-24T11:59:40.979Z,99917.72
2022-10-24T12:02:32.735Z,99908.69
2022-10-24T12:05:28.970Z,99897.47
2022-10-24T12:08:12.125Z,99911.16
2022-10-24T12:11:07.799Z,99903.16
2022-10-24T12:13:46.094Z,99913.28
2022-10-24T12:16:37.389Z,99918.16
2022-10-24T12:19:16.071Z,99911.44
2022-10-24T12:21:54.350Z,99919.53
2022-10-24T12:24:32.763Z,99908.00
2022-10-24T12:27:31.317Z,99916.19
2022-10-24T12:30:08.933Z,99916.19
2022-10-24T12:32:46.284Z,99922.00
2022-10-24T12:35:35.115Z,99920.19
2022-10-24T12:38:35.701Z,99911.56
2022-10-24T12:41:32.967Z,99914.91
2022-10-24T12:44:24.320Z,99916.84
2022-10-24T12:46:55.660Z,99915.44
2022-10-24T12:49:29.105Z,99926.34
2022-10-24T12:52:32.418Z,99918.38
2022-10-24T12:55:03.894Z,99925.56
2022-10-24T12:57:45.643Z,99908.56
2022-10-24T13:00:24.957Z,99913.38
2022-10-24T13:03:13.753Z,99918.63
2022-10-24T13:06:23.484Z,99903.38
2022-10-24T13:09:12.657Z,99903.53
2022-10-24T13:12:03.097Z,99894.13
2022-10-24T13:14:37.207Z,99920.84
2022-10-24T13:17:29.516Z,99918.34
2022-10-24T13:20:17.285Z,99919.50
2022-10-24T13:22:50.864Z,99926.16
2022-10-24T13:25:34.266Z,99930.09
2022-10-24T13:28:22.071Z,99920.72
2022-10-24T13:30:59.482Z,99926.19
2022-10-24T13:33:33.606Z,99941.94
2022-10-24T13:36:24.231Z,99937.97
2022-10-24T13:39:01.637Z,99919.16
2022-10-24T13:41:35.957Z,99938.53
2022-10-24T13:44:22.970Z,99943.06
2022-10-24T13:47:10.503Z,99945.38
2022-10-24T13:50:20.639Z,99949.91
2022-10-24T13:52:57.887Z,99935.69
2022-10-24T13:55:37.242Z,99943.47
2022-10-24T13:58:11.069Z,99949.59
2022-10-24T14:00:45.827Z,99946.25
2022-10-24T14:03:19.883Z,99941.94
2022-10-24T14:05:59.985Z,99947.22
2022-10-24T14:08:59.660Z,99943.00
2022-10-24T14:11:39.260Z,99953.06
2022-10-24T14:14:39.963Z,99955.88
2022-10-24T14:17:29.159Z,99949.69
2022-10-24T14:20:09.668Z,99953.88
2022-10-24T14:22:41.125Z,99961.19
2022-10-24T14:25:24.339Z,99952.00
2022-10-24T14:27:59.498Z,99950.84
2022-10-24T14:30:34.310Z,99950.13
2022-10-24T14:33:41.693Z,99953.59
2022-10-24T14:36:14.120Z,99964.44
2022-10-24T14:38:45.966Z,99958.28
2022-10-24T14:41:19.545Z,99953.66
2022-10-24T14:43:50.914Z,99964.09
2022-10-24T14:46:32.521Z,99952.38
2022-10-24T14:49:28.184Z,99963.78
2022-10-24T14:52:11.078Z,99968.69
2022-10-24T14:54:50.588Z,99965.59
2022-10-24T14:57:23.039Z,99983.78
2022-10-24T14:59:56.538Z,99974.97
2022-10-24T15:02:36.475Z,99976.00
2022-10-24T15:05:28.905Z,99972.47
2022-10-24T15:08:24.946Z,99985.88
2022-10-24T15:11:15.598Z,99973.94
2022-10-24T15:13:59.987Z,99986.13
2022-10-24T15:16:41.904Z,99978.66
2022-10-24T15:19:18.029Z,99962.59
2022-10-24T15:21:49.415Z,99973.84
2022-10-24T15:24:25.489Z,99977.47
2022-10-24T15:27:10.426Z,99977.56
2022-10-24T15:29:41.724Z,99969.00
2022-10-24T15:32:13.043Z,99990.88
2022-10-24T15:34:44.315Z,99986.38
2022-10-24T15:37:21.105Z,99987.16
2022-10-24T15:39:53.418Z,99983.88
2022-10-24T15:42:24.737Z,99988.38
2022-10-24T15:44:56.003Z,99978.16
2022-10-24T15:47:27.293Z,100003.59
2022-10-24T15:49:58.832Z,100004.97
2022-10-24T15:52:30.114Z,100010.00
2022-10-24T15:55:01.592Z,100015.84
2022-10-24T15:57:32.893Z,100019.81
2022-10-24T16:00:04.583Z,100001.56
2022-10-24T16:02:35.888Z,100014.97
2022-10-24T16:05:13.611Z,100010.38
2022-10-24T16:07:45.319Z,100009.78
2022-10-24T16:10:19.622Z,100026.72
2022-10-24T16:12:51.186Z,100015.38
2022-10-24T16:15:25.222Z,100022.81
2022-10-24T16:17:56.497Z,100025.81
2022-10-24T16:20:27.903Z,100013.78
2022-10-24T16:22:59.278Z,100016.44
2022-10-24T16:25:34.621Z,100014.00
2022-10-24T16:28:07.413Z,100008.13
2022-10-24T16:30:40.488Z,100011.75
2022-10-24T16:33:12.754Z,100009.47
2022-10-24T16:35:44.157Z,100027.34
2022-10-24T16:38:15.758Z,100028.44
2022-10-24T16:40:48.551Z,100036.56
2022-10-24T16:43:20.367Z,100042.78
2022-10-24T16:46:00.259Z,100038.22
2022-10-24T16:48:31.592Z,100054.19
2022-10-24T16:51:03.026Z,100054.28
2022-10-24T16:53:34.815Z,100042.94
2022-10-24T16:56:09.461Z,100038.53
2022-10-24T16:58:41.276Z,100057.59
2022-10-24T17:01:14.938Z,100047.91
2022-10-24T17:03:46.513Z,100058.84
2022-10-24T17:06:18.097Z,100070.81
2022-10-24T17:08:49.650Z,100075.59
2022-10-24T17:11:43.882Z,100070.56
2022-10-24T17:14:14.202Z,100067.66
2022-10-24T17:16:45.862Z,100069.22
2022-10-24T17:19:17.802Z,100086.00
2022-10-24T17:21:51.225Z,100076.94
2022-10-24T17:24:25.718Z,100076.88
2022-10-24T17:26:57.604Z,100081.28
2022-10-24T17:29:32.845Z,100077.59
2022-10-24T17:32:06.063Z,100082.00
2022-10-24T17:34:37.839Z,100083.09
2022-10-24T17:37:20.493Z,100077.88
2022-10-24T17:40:02.110Z,100087.00
2022-10-24T17:42:34.381Z,100098.81
2022-10-24T17:45:06.810Z,100085.75
2022-10-24T17:47:38.276Z,100079.75
2022-10-24T17:50:10.608Z,100087.41
2022-10-24T17:52:43.498Z,100072.88
2022-10-24T17:55:34.391Z,100096.59
2022-10-24T17:58:11.852Z,100100.66
2022-10-24T18:00:44.090Z,100093.88
2022-10-24T18:03:15.479Z,100095.91
2022-10-24T18:05:46.881Z,100105.81
2022-10-24T18:08:18.137Z,100096.50
2022-10-24T18:10:50.142Z,100104.66
2022-10-24T18:13:21.466Z,100100.53
2022-10-24T18:15:52.840Z,100113.78
2022-10-24T18:18:24.503Z,100105.59
2022-10-24T18:21:08.754Z,100097.44
2022-10-24T18:23:40.554Z,100102.63
2022-10-24T18:26:15.113Z,100110.44
2022-10-24T18:28:48.943Z,100105.88
2022-10-24T18:31:25.923Z,100111.31
2022-10-24T18:34:06.088Z,100119.25
2022-10-24T18:36:38.908Z,100120.91
2022-10-24T18:39:10.199Z,100111.16
2022-10-24T18:42:29.930Z,100118.09
2022-10-24T18:45:01.656Z,100112.75
2022-10-24T18:47:33.451Z,100121.56
2022-10-24T18:50:05.502Z,100112.91
2022-10-24T18:52:48.378Z,100125.09
2022-10-24T18:55:25.143Z,100124.16
2022-10-24T18:57:57.453Z,100128.56
2022-10-24T19:00:31.243Z,100124.09
2022-10-24T19:03:31.273Z,100124.97
2022-10-24T19:06:24.501Z,100134.78
2022-10-24T19:08:55.939Z,100143.75
2022-10-24T19:11:27.338Z,100142.75
2022-10-24T19:13:58.754Z,100135.97
2022-10-24T19:16:32.393Z,100147.09
2022-10-24T19:19:04.164Z,100147.22
2022-10-24T19:21:35.454Z,100153.81
2022-10-24T19:24:06.997Z,100146.38
2022-10-24T19:26:38.298Z,100144.41
2022-10-24T19:29:09.598Z,100151.91
2022-10-24T19:31:41.066Z,100149.81
2022-10-24T19:34:12.515Z,100146.69
2022-10-24T19:36:43.821Z,100146.34
2022-10-24T19:39:15.140Z,100151.91
2022-10-24T19:41:46.422Z,100152.31
2022-10-24T19:44:18.105Z,100153.59
2022-10-24T19:46:49.468Z,100148.66
2022-10-24T19:49:20.743Z,100139.97
2022-10-24T19:51:52.304Z,100138.59
2022-10-24T19:54:24.504Z,100155.41
2022-10-24T19:56:55.869Z,100155.47
2022-10-24T19:59:31.668Z,100136.31
2022-10-24T20:02:06.471Z,100152.69
2022-10-24T20:04:40.112Z,100161.31
2022-10-24T20:07:12.711Z,100164.59
2022-10-24T20:09:44.468Z,100165.19
2022-10-24T20:12:15.875Z,100160.66
2022-10-24T20:14:47.183Z,100159.66
2022-10-24T20:17:19.152Z,100166.81
2022-10-24T20:19:50.474Z,100153.84
2022-10-24T20:22:21.741Z,100173.81
2022-10-24T20:24:53.021Z,100172.81
2022-10-24T20:27:24.815Z,100178.03
2022-10-24T20:29:56.359Z,100188.44
2022-10-24T20:32:27.617Z,100186.44
2022-10-24T20:34:58.950Z,100187.16
2022-10-24T20:37:30.474Z,100191.50
2022-10-24T20:40:01.745Z,100185.31
2022-10-24T20:42:33.088Z,100195.00
2022-10-24T20:45:04.819Z,100193.31
2022-10-24T20:47:36.631Z,100194.38
2022-10-24T20:50:08.504Z,100192.13
2022-10-24T20:52:39.854Z,100194.06
2022-10-24T20:55:19.850Z,100208.34
2022-10-24T20:58:02.445Z,100194.59
2022-10-24T21:00:33.765Z,100212.47
2022-10-24T21:03:05.150Z,100201.19
2022-10-24T21:05:36.418Z,100201.56
2022-10-24T21:08:07.681Z,100222.09
2022-10-24T21:10:38.939Z,100210.06
2022-10-24T21:13:10.200Z,100210.53
2022-10-24T21:15:41.555Z,100223.94
2022-10-24T21:18:12.801Z,100226.91
2022-10-24T21:20:44.076Z,100232.50
2022-10-24T21:23:15.362Z,100229.16
2022-10-24T21:25:46.664Z,100232.75
2022-10-24T21:28:17.924Z,100232.75
2022-10-24T21:30:49.197Z,100236.34
2022-10-24T21:33:20.574Z,100233.13
2022-10-24T21:35:51.842Z,100238.50
2022-10-24T21:38:23.196Z,100236.09
2022-10-24T21:41:00.724Z,100242.53
2022-10-24T21:43:33.069Z,100238.19
2022-10-24T21:46:08.342Z,100234.06
2022-10-24T21:48:41.017Z,100244.72
2022-10-24T21:51:15.947Z,100241.38
2022-10-24T21:53:49.874Z,100255.00
2022-10-24T21:56:23.684Z,100254.25
2022-10-24T21:59:00.598Z,100239.41
2022-10-24T22:01:34.960Z,100251.84
2022-10-24T22:04:07.323Z,100255.50
2022-10-24T22:06:39.612Z,100265.38
2022-10-24T22:09:17.971Z,100254.78
2022-10-24T22:11:49.696Z,100263.75
2022-10-24T22:14:21.033Z,100265.66
2022-10-24T22:16:52.681Z,100271.09
2022-10-24T22:19:23.964Z,100264.16
2022-10-24T22:21:55.398Z,100265.06
2022-10-24T22:24:26.763Z,100269.75
2022-10-24T22:26:58.035Z,100268.94
2022-10-24T22:29:29.516Z,100275.31
2022-10-24T22:32:01.058Z,100275.47
2022-10-24T22:34:32.682Z,100276.50
2022-10-24T22:37:12.285Z,100277.59
2022-10-24T22:39:43.835Z,100283.94
2022-10-24T22:42:19.333Z,100273.41
2022-10-24T22:44:52.321Z,100279.81
2022-10-24T22:47:36.383Z,100275.50
2022-10-24T22:50:38.612Z,100279.25
2022-10-24T22:53:14.814Z,100286.53
2022-10-24T22:55:59.182Z,100275.94
2022-10-24T22:58:30.782Z,100280.75
2022-10-24T23:01:11.117Z,100284.31
2022-10-24T23:04:02.278Z,100288.00
2022-10-24T23:06:48.537Z,100281.28
2022-10-24T23:09:19.899Z,100286.59
2022-10-24T23:11:51.481Z,100300.69
2022-10-24T23:14:23.107Z,100292.09
2022-10-24T23:17:00.359Z,100303.50
2022-10-24T23:19:32.388Z,100300.91
2022-10-24T23:22:23.115Z,100291.38
2022-10-24T23:24:56.796Z,100299.38
2022-10-24T23:27:31.659Z,100306.47
2022-10-24T23:30:07.447Z,100305.66
2022-10-24T23:32:39.735Z,100312.81
2022-10-24T23:35:13.479Z,100305.13
2022-10-24T23:37:47.351Z,100313.88
2022-10-24T23:40:35.656Z,100313.06
2022-10-24T23:43:15.913Z,100309.56
2022-10-24T23:45:57.993Z,100302.56
2022-10-24T23:48:43.803Z,100312.22
2022-10-24T23:51:28.058Z,100314.03
2022-10-24T23:53:59.704Z,100301.88
2022-10-24T23:56:31.282Z,100314.13
2022-10-24T23:59:02.579Z,100314.16
